Time,TemperatureF,DewpointF,PressureIn,WindDirection,WindDirectionDegrees,WindSpeedMPH,WindSpeedGustMPH,Humidity,HourlyPrecipIn,Conditions,Clouds,dailyrainin,SoftwareType,DateUTC
2013-01-29 00:02:00,72.9,64.1,29.68,ESE,112,0.0,0.0,74,0.00,,,0.00,WUHU21623XXSP,2013-01-29 05:02:00,
2013-01-29 00:03:00,72.9,64.1,29.68,ESE,112,0.0,0.0,74,0.00,,,0.00,WUHU21623XXSP,2013-01-29 05:03:00,
2013-01-29 00:04:00,72.9,64.1,29.68,East,90,0.0,0.0,74,0.00,,,0.00,WUHU21623XXSP,2013-01-29 05:04:00,
2013-01-29 00:09:00,72.9,64.1,29.68,SE,135,0.0,0.0,74,0.00,,,0.00,WUHU21623XXSP,2013-01-29 05:09:00,
2013-01-29 00:14:00,72.7,63.9,29.68,SSE,157,0.0,0.0,74,0.00,,,0.00,WUHU21623XXSP,2013-01-29 05:14:00,
2013-01-29 00:19:00,72.9,64.1,29.67,SSE,157,0.0,0.0,74,0.00,,,0.00,WUHU21623XXSP,2013-01-29 05:19:00,
2013-01-29 00:24:00,72.9,64.1,29.67,SSE,157,0.0,0.0,74,0.00,,,0.00,WUHU21623XXSP,2013-01-29 05:24:00,
2013-01-29 00:29:00,72.9,64.1,29.67,SE,135,0.0,0.0,74,0.00,,,0.00,WUHU21623XXSP,2013-01-29 05:29:00,
2013-01-29 00:34:00,73.0,64.3,29.67,SE,135,0.0,0.0,74,0.00,,,0.00,WUHU21623XXSP,2013-01-29 05:34:00,
2013-01-29 00:39:00,73.0,64.3,29.67,SSE,157,0.0,0.0,74,0.00,,,0.00,WUHU21623XXSP,2013-01-29 05:39:00,
2013-01-29 00:44:00,73.0,64.3,29.67,SE,135,0.0,0.0,74,0.00,,,0.00,WUHU21623XXSP,2013-01-29 05:44:00,
2013-01-29 00:49:00,72.9,63.7,29.67,SE,135,0.0,0.0,73,0.00,,,0.00,WUHU21623XXSP,2013-01-29 05:49:00,
2013-01-29 00:54:00,73.0,64.3,29.67,SE,135,0.0,0.0,74,0.00,,,0.00,WUHU21623XXSP,2013-01-29 05:54:00,
2013-01-29 00:59:00,72.9,64.1,29.67,East,90,0.0,0.0,74,0.00,,,0.00,WUHU21623XXSP,2013-01-29 05:59:00,
2013-01-29 01:04:00,72.9,64.1,29.67,East,90,0.0,0.0,74,0.00,,,0.00,WUHU21623XXSP,2013-01-29 06:04:00,
2013-01-29 01:09:00,72.9,64.1,29.67,South,180,0.0,0.0,74,0.00,,,0.00,WUHU21623XXSP,2013-01-29 06:09:00,
2013-01-29 01:14:00,72.9,63.7,29.67,SE,135,0.0,0.0,73,0.00,,,0.00,WUHU21623XXSP,2013-01-29 06:14:00,
2013-01-29 01:19:00,72.9,63.7,29.67,SSE,157,0.0,0.0,73,0.00,,,0.00,WUHU21623XXSP,2013-01-29 06:19:00,
2013-01-29 01:24:00,72.9,63.7,29.66,South,180,0.0,0.0,73,0.00,,,0.00,WUHU21623XXSP,2013-01-29 06:24:00,
2013-01-29 01:29:00,72.7,63.6,29.66,ESE,112,0.0,0.0,73,0.00,,,0.00,WUHU21623XXSP,2013-01-29 06:29:00,
2013-01-29 01:34:00,72.7,63.6,29.66,SE,135,0.0,0.0,73,0.00,,,0.00,WUHU21623XXSP,2013-01-29 06:34:00,
2013-01-29 01:39:00,72.7,63.6,29.66,SE,135,0.0,0.0,73,0.00,,,0.00,WUHU21623XXSP,2013-01-29 06:39:00,
2013-01-29 01:44:00,72.5,63.4,29.66,SE,135,0.0,0.0,73,0.00,,,0.00,WUHU21623XXSP,2013-01-29 06:44:00,
2013-01-29 01:49:00,72.5,63.4,29.65,SSE,157,0.0,0.0,73,0.00,,,0.00,WUHU21623XXSP,2013-01-29 06:49:00,
2013-01-29 01:54:00,72.5,63.4,29.65,SSW,202,0.0,0.0,73,0.00,,,0.00,WUHU21623XXSP,2013-01-29 06:54:00,
2013-01-29 01:59:00,72.3,63.2,29.65,SE,135,0.0,0.0,73,0.00,,,0.00,WUHU21623XXSP,2013-01-29 06:59:00,
2013-01-29 02:04:00,72.3,63.2,29.65,SE,135,0.0,0.0,73,0.00,,,0.00,WUHU21623XXSP,2013-01-29 07:04:00,
2013-01-29 02:09:00,72.3,63.2,29.65,SSE,157,0.0,0.0,73,0.00,,,0.00,WUHU21623XXSP,2013-01-29 07:09:00,
2013-01-29 02:14:00,72.3,63.2,29.65,SE,135,0.0,0.0,73,0.00,,,0.00,WUHU21623XXSP,2013-01-29 07:14:00,
2013-01-29 02:19:00,72.3,63.2,29.64,SSE,157,0.0,0.0,73,0.00,,,0.00,WUHU21623XXSP,2013-01-29 07:19:00,
2013-01-29 02:24:00,72.3,63.6,29.64,SE,135,0.0,0.0,74,0.00,,,0.00,WUHU21623XXSP,2013-01-29 07:24:00,
2013-01-29 02:29:00,72.1,63.4,29.65,SE,135,0.0,0.0,74,0.00,,,0.00,WUHU21623XXSP,2013-01-29 07:29:00,
2013-01-29 02:34:00,72.1,63.4,29.65,SSE,157,0.0,0.0,74,0.00,,,0.00,WUHU21623XXSP,2013-01-29 07:34:00,
2013-01-29 02:39:00,72.1,63.4,29.65,SE,135,0.0,0.0,74,0.00,,,0.00,WUHU21623XXSP,2013-01-29 07:39:00,
2013-01-29 02:44:00,72.1,63.8,29.64,ESE,112,0.0,0.0,75,0.00,,,0.00,WUHU21623XXSP,2013-01-29 07:44:00,
2013-01-29 02:49:00,72.0,63.2,29.64,ESE,112,0.0,0.0,74,0.00,,,0.00,WUHU21623XXSP,2013-01-29 07:49:00,
2013-01-29 02:54:00,72.0,63.2,29.65,SE,135,0.0,0.0,74,0.00,,,0.00,WUHU21623XXSP,2013-01-29 07:54:00,
2013-01-29 02:59:00,72.0,63.2,29.64,SE,135,0.0,0.0,74,0.00,,,0.00,WUHU21623XXSP,2013-01-29 07:59:00,
2013-01-29 03:04:00,71.8,63.4,29.65,SSE,157,0.0,0.0,75,0.00,,,0.00,WUHU21623XXSP,2013-01-29 08:04:00,
2013-01-29 03:09:00,71.8,63.4,29.65,SSE,157,0.0,0.0,75,0.00,,,0.00,WUHU21623XXSP,2013-01-29 08:09:00,
2013-01-29 03:14:00,71.8,63.4,29.64,SE,135,0.0,0.0,75,0.00,,,0.00,WUHU21623XXSP,2013-01-29 08:14:00,
2013-01-29 03:19:00,71.8,63.4,29.64,SE,135,0.0,0.0,75,0.00,,,0.00,WUHU21623XXSP,2013-01-29 08:19:00,
2013-01-29 03:24:00,71.8,63.4,29.64,SE,135,0.0,0.0,75,0.00,,,0.00,WUHU21623XXSP,2013-01-29 08:24:00,
2013-01-29 03:29:00,71.8,63.4,29.64,SSE,157,0.0,0.0,75,0.00,,,0.00,WUHU21623XXSP,2013-01-29 08:29:00,
2013-01-29 03:34:00,71.4,63.0,29.64,SE,135,0.0,0.0,75,0.00,,,0.00,WUHU21623XXSP,2013-01-29 08:34:00,
2013-01-29 03:39:00,71.4,63.0,29.64,SE,135,0.0,0.0,75,0.00,,,0.00,WUHU21623XXSP,2013-01-29 08:39:00,
2013-01-29 03:44:00,71.4,63.0,29.64,SE,135,0.0,0.0,75,0.00,,,0.00,WUHU21623XXSP,2013-01-29 08:44:00,
2013-01-29 03:49:00,71.4,63.0,29.64,SE,135,0.0,0.0,75,0.00,,,0.00,WUHU21623XXSP,2013-01-29 08:49:00,
2013-01-29 03:54:00,71.4,63.0,29.64,SSE,157,0.0,0.0,75,0.00,,,0.00,WUHU21623XXSP,2013-01-29 08:54:00,
2013-01-29 03:59:00,71.4,63.4,29.64,SE,135,0.0,0.0,76,0.00,,,0.00,WUHU21623XXSP,2013-01-29 08:59:00,
2013-01-29 04:04:00,71.2,63.2,29.64,SSE,157,0.0,0.0,76,0.00,,,0.00,WUHU21623XXSP,2013-01-29 09:04:00,
2013-01-29 04:09:00,71.4,63.4,29.64,SSE,157,0.0,0.0,76,0.00,,,0.00,WUHU21623XXSP,2013-01-29 09:09:00,
2013-01-29 04:14:00,71.4,63.4,29.64,SSE,157,0.0,0.0,76,0.00,,,0.00,WUHU21623XXSP,2013-01-29 09:14:00,
2013-01-29 04:19:00,71.2,63.2,29.64,SSE,157,0.0,0.0,76,0.00,,,0.00,WUHU21623XXSP,2013-01-29 09:19:00,
2013-01-29 04:24:00,71.2,63.2,29.63,ESE,112,0.0,0.0,76,0.00,,,0.00,WUHU21623XXSP,2013-01-29 09:24:00,
2013-01-29 04:29:00,71.2,63.2,29.63,SSE,157,0.0,0.0,76,0.00,,,0.00,WUHU21623XXSP,2013-01-29 09:29:00,
2013-01-29 04:34:00,71.2,63.2,29.64,SE,135,0.0,0.0,76,0.00,,,0.00,WUHU21623XXSP,2013-01-29 09:34:00,
2013-01-29 04:39:00,71.2,63.2,29.63,SE,135,0.0,0.0,76,0.00,,,0.00,WUHU21623XXSP,2013-01-29 09:39:00,
2013-01-29 04:44:00,71.2,63.2,29.63,SSE,157,0.0,0.0,76,0.00,,,0.00,WUHU21623XXSP,2013-01-29 09:44:00,
2013-01-29 04:49:00,71.2,63.2,29.64,SE,135,0.0,0.0,76,0.00,,,0.00,WUHU21623XXSP,2013-01-29 09:49:00,
2013-01-29 04:54:00,71.2,63.2,29.64,SE,135,0.0,0.0,76,0.00,,,0.00,WUHU21623XXSP,2013-01-29 09:54:00,
2013-01-29 04:59:00,70.9,62.9,29.63,SE,135,0.0,0.0,76,0.00,,,0.00,WUHU21623XXSP,2013-01-29 09:59:00,
2013-01-29 05:04:00,70.9,62.9,29.63,South,180,0.0,0.0,76,0.00,,,0.00,WUHU21623XXSP,2013-01-29 10:04:00,
2013-01-29 05:09:00,70.9,62.9,29.63,SSE,157,0.0,0.0,76,0.00,,,0.00,WUHU21623XXSP,2013-01-29 10:09:00,
2013-01-29 05:14:00,70.7,62.7,29.63,SSE,157,0.0,0.0,76,0.00,,,0.00,WUHU21623XXSP,2013-01-29 10:14:00,
2013-01-29 05:19:00,70.7,63.1,29.63,SE,135,0.0,0.0,77,0.00,,,0.00,WUHU21623XXSP,2013-01-29 10:19:00,
2013-01-29 05:24:00,70.7,63.1,29.63,SSE,157,0.0,0.0,77,0.00,,,0.00,WUHU21623XXSP,2013-01-29 10:24:00,
2013-01-29 05:29:00,70.7,63.1,29.63,SSE,157,0.0,0.0,77,0.00,,,0.00,WUHU21623XXSP,2013-01-29 10:29:00,
2013-01-29 05:34:00,70.7,63.1,29.64,SSE,157,0.0,0.0,77,0.00,,,0.00,WUHU21623XXSP,2013-01-29 10:34:00,
2013-01-29 05:39:00,70.5,62.9,29.64,SSE,157,0.0,0.0,77,0.00,,,0.00,WUHU21623XXSP,2013-01-29 10:39:00,
2013-01-29 05:44:00,70.5,62.9,29.64,SSE,157,0.0,0.0,77,0.00,,,0.00,WUHU21623XXSP,2013-01-29 10:44:00,
2013-01-29 05:49:00,70.5,63.3,29.64,SSE,157,0.0,0.0,78,0.00,,,0.00,WUHU21623XXSP,2013-01-29 10:49:00,
2013-01-29 05:54:00,70.5,63.3,29.65,SE,135,0.0,0.0,78,0.00,,,0.00,WUHU21623XXSP,2013-01-29 10:54:00,
2013-01-29 05:59:00,70.7,63.5,29.65,SSE,157,0.0,0.0,78,0.00,,,0.00,WUHU21623XXSP,2013-01-29 10:59:00,
2013-01-29 06:04:00,70.9,63.6,29.65,SSE,157,0.0,0.0,78,0.00,,,0.00,WUHU21623XXSP,2013-01-29 11:04:00,
2013-01-29 06:09:00,70.9,63.6,29.65,SE,135,0.0,0.0,78,0.00,,,0.00,WUHU21623XXSP,2013-01-29 11:09:00,
2013-01-29 06:14:00,70.9,63.6,29.65,SSE,157,0.0,0.0,78,0.00,,,0.00,WUHU21623XXSP,2013-01-29 11:14:00,
2013-01-29 06:19:00,70.9,63.6,29.65,SSW,202,0.0,0.0,78,0.00,,,0.00,WUHU21623XXSP,2013-01-29 11:19:00,
2013-01-29 06:24:00,70.9,63.6,29.65,SSE,157,0.0,0.0,78,0.00,,,0.00,WUHU21623XXSP,2013-01-29 11:24:00,
2013-01-29 06:29:00,70.9,63.6,29.65,South,180,0.0,0.0,78,0.00,,,0.00,WUHU21623XXSP,2013-01-29 11:29:00,
2013-01-29 06:34:00,70.9,63.6,29.65,SSE,157,0.0,0.0,78,0.00,,,0.00,WUHU21623XXSP,2013-01-29 11:34:00,
2013-01-29 06:39:00,70.9,63.6,29.66,SSE,157,0.0,0.0,78,0.00,,,0.00,WUHU21623XXSP,2013-01-29 11:39:00,
2013-01-29 06:44:00,70.7,63.5,29.66,South,180,0.0,0.0,78,0.00,,,0.00,WUHU21623XXSP,2013-01-29 11:44:00,
2013-01-29 06:49:00,70.7,63.5,29.66,South,180,0.0,0.0,78,0.00,,,0.00,WUHU21623XXSP,2013-01-29 11:49:00,
2013-01-29 06:54:00,70.7,63.5,29.66,SSE,157,0.0,0.0,78,0.00,,,0.00,WUHU21623XXSP,2013-01-29 11:54:00,
2013-01-29 06:59:00,70.7,63.8,29.66,SSE,157,0.0,0.0,79,0.00,,,0.00,WUHU21623XXSP,2013-01-29 11:59:00,
2013-01-29 07:04:00,70.7,63.8,29.66,SSE,157,0.0,0.0,79,0.00,,,0.00,WUHU21623XXSP,2013-01-29 12:04:00,
2013-01-29 07:09:00,70.7,63.8,29.66,SSE,157,0.0,0.0,79,0.00,,,0.00,WUHU21623XXSP,2013-01-29 12:09:00,
2013-01-29 07:14:00,70.5,63.7,29.66,SE,135,0.0,0.0,79,0.00,,,0.00,WUHU21623XXSP,2013-01-29 12:14:00,
2013-01-29 07:19:00,70.5,63.7,29.66,SE,135,0.0,0.0,79,0.00,,,0.00,WUHU21623XXSP,2013-01-29 12:19:00,
2013-01-29 07:24:00,70.5,63.7,29.67,SSE,157,0.0,0.0,79,0.00,,,0.00,WUHU21623XXSP,2013-01-29 12:24:00,
2013-01-29 07:29:00,70.5,64.0,29.67,SSE,157,0.0,0.0,80,0.00,,,0.00,WUHU21623XXSP,2013-01-29 12:29:00,
2013-01-29 07:34:00,70.7,64.2,29.67,SSE,157,0.0,0.0,80,0.00,,,0.00,WUHU21623XXSP,2013-01-29 12:34:00,
2013-01-29 07:39:00,70.9,64.4,29.67,SSE,157,0.0,0.0,80,0.00,,,0.00,WUHU21623XXSP,2013-01-29 12:39:00,
2013-01-29 07:44:00,70.9,64.4,29.67,SSE,157,0.0,0.0,80,0.00,,,0.00,WUHU21623XXSP,2013-01-29 12:44:00,
2013-01-29 07:49:00,71.2,64.8,29.67,ESE,112,0.0,0.0,80,0.00,,,0.00,WUHU21623XXSP,2013-01-29 12:49:00,
2013-01-29 07:54:00,71.2,64.8,29.67,SSE,157,0.0,0.0,80,0.00,,,0.00,WUHU21623XXSP,2013-01-29 12:54:00,
2013-01-29 07:59:00,71.4,64.9,29.67,SSE,157,0.0,0.0,80,0.00,,,0.00,WUHU21623XXSP,2013-01-29 12:59:00,
2013-01-29 08:04:00,71.4,64.9,29.67,SSE,157,0.0,0.0,80,0.00,,,0.00,WUHU21623XXSP,2013-01-29 13:04:00,
2013-01-29 08:09:00,71.8,65.3,29.67,SSE,157,0.0,0.0,80,0.00,,,0.00,WUHU21623XXSP,2013-01-29 13:09:00,
2013-01-29 08:14:00,71.8,65.3,29.67,SSE,157,0.0,0.0,80,0.00,,,0.00,WUHU21623XXSP,2013-01-29 13:14:00,
2013-01-29 08:19:00,73.0,66.6,29.67,South,180,0.0,0.0,80,0.00,,,0.00,WUHU21623XXSP,2013-01-29 13:19:00,
2013-01-29 08:24:00,73.2,66.4,29.67,SSE,157,0.0,0.0,79,0.00,,,0.00,WUHU21623XXSP,2013-01-29 13:24:00,
2013-01-29 08:29:00,73.2,66.0,29.68,SSE,157,0.0,0.0,78,0.00,,,0.00,WUHU21623XXSP,2013-01-29 13:29:00,
2013-01-29 08:34:00,73.6,66.3,29.67,SSE,157,0.0,0.0,78,0.00,,,0.00,WUHU21623XXSP,2013-01-29 13:34:00,
2013-01-29 08:39:00,74.5,67.2,29.68,SSE,157,0.0,0.0,78,0.00,,,0.00,WUHU21623XXSP,2013-01-29 13:39:00,
2013-01-29 08:44:00,75.0,67.4,29.67,South,180,0.0,0.0,77,0.00,,,0.00,WUHU21623XXSP,2013-01-29 13:44:00,
2013-01-29 08:49:00,75.0,67.0,29.67,SSW,202,0.0,0.0,76,0.00,,,0.00,WUHU21623XXSP,2013-01-29 13:49:00,
2013-01-29 08:54:00,74.8,66.8,29.68,SE,135,0.0,0.0,76,0.00,,,0.00,WUHU21623XXSP,2013-01-29 13:54:00,
2013-01-29 08:59:00,74.8,66.8,29.67,SSE,157,0.0,0.0,76,0.00,,,0.00,WUHU21623XXSP,2013-01-29 13:59:00,
2013-01-29 09:04:00,74.7,66.4,29.67,SSE,157,0.0,0.0,76,0.00,,,0.00,WUHU21623XXSP,2013-01-29 14:04:00,
2013-01-29 09:09:00,74.5,66.4,29.67,SSE,157,0.0,0.0,76,0.00,,,0.00,WUHU21623XXSP,2013-01-29 14:09:00,
2013-01-29 09:14:00,74.5,66.8,29.67,South,180,0.0,0.0,77,0.00,,,0.00,WUHU21623XXSP,2013-01-29 14:14:00,
2013-01-29 09:19:00,74.5,66.8,29.67,SSE,157,0.0,0.0,77,0.00,,,0.00,WUHU21623XXSP,2013-01-29 14:19:00,
2013-01-29 09:24:00,75.0,67.0,29.67,SSE,157,0.0,0.0,76,0.00,,,0.00,WUHU21623XXSP,2013-01-29 14:24:00,
2013-01-29 09:29:00,75.9,67.8,29.67,SSE,157,0.0,0.0,76,0.00,,,0.00,WUHU21623XXSP,2013-01-29 14:29:00,
2013-01-29 09:34:00,77.5,67.8,29.68,SE,135,0.0,0.0,72,0.00,,,0.00,WUHU21623XXSP,2013-01-29 14:34:00,
2013-01-29 09:39:00,77.2,67.5,29.67,SSE,157,0.0,0.0,72,0.00,,,0.00,WUHU21623XXSP,2013-01-29 14:39:00,
2013-01-29 09:44:00,76.8,67.1,29.68,South,180,0.0,0.0,72,0.00,,,0.00,WUHU21623XXSP,2013-01-29 14:44:00,
2013-01-29 09:49:00,76.8,67.5,29.68,SE,135,0.0,0.0,73,0.00,,,0.00,WUHU21623XXSP,2013-01-29 14:49:00,
2013-01-29 09:54:00,76.8,67.5,29.68,SSE,157,0.0,0.0,73,0.00,,,0.00,WUHU21623XXSP,2013-01-29 14:54:00,
2013-01-29 09:59:00,76.5,67.2,29.68,ESE,112,0.0,0.0,73,0.00,,,0.00,WUHU21623XXSP,2013-01-29 14:59:00,
2013-01-29 10:04:00,76.3,67.0,29.68,South,180,0.0,0.0,73,0.00,,,0.00,WUHU21623XXSP,2013-01-29 15:04:00,
2013-01-29 10:09:00,76.8,67.1,29.68,SSE,157,0.0,0.0,72,0.00,,,0.00,WUHU21623XXSP,2013-01-29 15:09:00,
2013-01-29 10:14:00,76.8,67.1,29.68,SE,135,0.0,0.0,72,0.00,,,0.00,WUHU21623XXSP,2013-01-29 15:14:00,
2013-01-29 10:19:00,76.8,67.1,29.68,SSW,202,0.0,0.0,72,0.00,,,0.00,WUHU21623XXSP,2013-01-29 15:19:00,
2013-01-29 10:24:00,76.8,67.1,29.68,SE,135,0.0,0.0,72,0.00,,,0.00,WUHU21623XXSP,2013-01-29 15:24:00,
2013-01-29 10:29:00,77.4,67.5,29.68,SSE,157,0.0,0.0,72,0.00,,,0.00,WUHU21623XXSP,2013-01-29 15:29:00,
2013-01-29 10:34:00,77.2,67.1,29.67,SE,135,0.0,0.0,71,0.00,,,0.00,WUHU21623XXSP,2013-01-29 15:34:00,
2013-01-29 10:39:00,77.5,67.4,29.67,SSE,157,0.0,0.0,71,0.00,,,0.00,WUHU21623XXSP,2013-01-29 15:39:00,
2013-01-29 10:44:00,77.7,67.6,29.68,SE,135,0.0,0.0,71,0.00,,,0.00,WUHU21623XXSP,2013-01-29 15:44:00,
2013-01-29 10:49:00,78.4,68.2,29.68,South,180,0.0,0.0,71,0.00,,,0.00,WUHU21623XXSP,2013-01-29 15:49:00,
2013-01-29 10:54:00,78.1,67.5,29.68,SE,135,0.0,0.0,70,0.00,,,0.00,WUHU21623XXSP,2013-01-29 15:54:00,
2013-01-29 10:59:00,77.9,67.4,29.67,SSE,157,0.0,0.0,70,0.00,,,0.00,WUHU21623XXSP,2013-01-29 15:59:00,
2013-01-29 11:04:00,77.9,67.4,29.68,SE,135,0.0,0.0,70,0.00,,,0.00,WUHU21623XXSP,2013-01-29 16:04:00,
2013-01-29 11:09:00,78.1,67.5,29.67,SE,135,0.0,0.0,70,0.00,,,0.00,WUHU21623XXSP,2013-01-29 16:09:00,
2013-01-29 11:14:00,78.4,68.2,29.67,SE,135,0.0,0.0,71,0.00,,,0.00,WUHU21623XXSP,2013-01-29 16:14:00,
2013-01-29 11:19:00,79.0,67.9,29.67,SSE,157,0.0,0.0,69,0.00,,,0.00,WUHU21623XXSP,2013-01-29 16:19:00,
2013-01-29 11:24:00,79.0,67.9,29.67,SSE,157,0.0,0.0,69,0.00,,,0.00,WUHU21623XXSP,2013-01-29 16:24:00,
2013-01-29 11:29:00,78.6,67.6,29.66,SSE,157,0.0,0.0,69,0.00,,,0.00,WUHU21623XXSP,2013-01-29 16:29:00,
2013-01-29 11:34:00,79.5,68.5,29.66,SE,135,0.0,0.0,69,0.00,,,0.00,WUHU21623XXSP,2013-01-29 16:34:00,
2013-01-29 11:39:00,80.2,68.3,29.66,South,180,0.0,0.0,67,0.00,,,0.00,WUHU21623XXSP,2013-01-29 16:39:00,
2013-01-29 11:44:00,80.4,68.5,29.66,South,180,0.0,0.0,67,0.00,,,0.00,WUHU21623XXSP,2013-01-29 16:44:00,
2013-01-29 11:49:00,80.4,68.0,29.66,SE,135,0.0,0.0,66,0.00,,,0.00,WUHU21623XXSP,2013-01-29 16:49:00,
2013-01-29 11:54:00,80.4,68.0,29.66,South,180,0.0,0.0,66,0.00,,,0.00,WUHU21623XXSP,2013-01-29 16:54:00,
2013-01-29 11:59:00,80.2,68.3,29.66,SE,135,0.0,0.0,67,0.00,,,0.00,WUHU21623XXSP,2013-01-29 16:59:00,
2013-01-29 12:04:00,79.5,67.1,29.66,SSE,157,0.0,0.0,66,0.00,,,0.00,WUHU21623XXSP,2013-01-29 17:04:00,
2013-01-29 12:09:00,79.5,67.6,29.65,SSE,157,0.0,0.0,67,0.00,,,0.00,WUHU21623XXSP,2013-01-29 17:09:00,
2013-01-29 12:14:00,79.5,67.6,29.65,SE,135,0.0,0.0,67,0.00,,,0.00,WUHU21623XXSP,2013-01-29 17:14:00,
2013-01-29 12:19:00,79.0,67.0,29.65,SE,135,0.0,0.0,67,0.00,,,0.00,WUHU21623XXSP,2013-01-29 17:19:00,
2013-01-29 12:24:00,79.0,67.5,29.65,SE,135,0.0,0.0,68,0.00,,,0.00,WUHU21623XXSP,2013-01-29 17:24:00,
2013-01-29 12:29:00,79.2,67.7,29.65,SSE,157,0.0,0.0,68,0.00,,,0.00,WUHU21623XXSP,2013-01-29 17:29:00,
2013-01-29 12:34:00,79.5,67.6,29.65,SSE,157,0.0,0.0,67,0.00,,,0.00,WUHU21623XXSP,2013-01-29 17:34:00,
2013-01-29 12:39:00,79.3,67.4,29.64,South,180,0.0,0.0,67,0.00,,,0.00,WUHU21623XXSP,2013-01-29 17:39:00,
2013-01-29 12:44:00,79.7,67.3,29.64,SSE,157,0.0,0.0,66,0.00,,,0.00,WUHU21623XXSP,2013-01-29 17:44:00,
2013-01-29 12:49:00,80.2,67.8,29.63,SSE,157,0.0,0.0,66,0.00,,,0.00,WUHU21623XXSP,2013-01-29 17:49:00,
2013-01-29 12:54:00,81.0,68.1,29.63,SSE,157,0.0,0.0,65,0.00,,,0.00,WUHU21623XXSP,2013-01-29 17:54:00,
2013-01-29 12:59:00,81.3,67.9,29.63,SSE,157,0.0,0.0,64,0.00,,,0.00,WUHU21623XXSP,2013-01-29 17:59:00,
2013-01-29 13:04:00,81.1,67.8,29.63,South,180,0.0,0.0,64,0.00,,,0.00,WUHU21623XXSP,2013-01-29 18:04:00,
2013-01-29 13:09:00,81.1,67.8,29.62,SE,135,0.0,0.0,64,0.00,,,0.00,WUHU21623XXSP,2013-01-29 18:09:00,
2013-01-29 13:14:00,81.0,67.2,29.62,SSE,157,0.0,0.0,63,0.00,,,0.00,WUHU21623XXSP,2013-01-29 18:14:00,
2013-01-29 13:19:00,81.1,67.8,29.62,East,90,0.0,0.0,64,0.00,,,0.00,WUHU21623XXSP,2013-01-29 18:19:00,
2013-01-29 13:24:00,80.8,67.0,29.62,SSE,157,0.0,0.0,63,0.00,,,0.00,WUHU21623XXSP,2013-01-29 18:24:00,
2013-01-29 13:29:00,80.4,67.6,29.62,ESE,112,0.0,0.0,65,0.00,,,0.00,WUHU21623XXSP,2013-01-29 18:29:00,
2013-01-29 13:34:00,79.9,67.5,29.61,SSE,157,0.0,0.0,66,0.00,,,0.00,WUHU21623XXSP,2013-01-29 18:34:00,
2013-01-29 13:39:00,79.9,67.0,29.61,SSE,157,0.0,0.0,65,0.00,,,0.00,WUHU21623XXSP,2013-01-29 18:39:00,
2013-01-29 13:44:00,80.4,67.6,29.61,SSE,157,0.0,0.0,65,0.00,,,0.00,WUHU21623XXSP,2013-01-29 18:44:00,
2013-01-29 13:49:00,81.1,67.3,29.60,SSE,157,0.0,0.0,63,0.00,,,0.00,WUHU21623XXSP,2013-01-29 18:49:00,
2013-01-29 13:54:00,80.4,67.1,29.60,SSE,157,0.0,0.0,64,0.00,,,0.00,WUHU21623XXSP,2013-01-29 18:54:00,
2013-01-29 13:59:00,80.1,67.2,29.60,South,180,0.0,0.0,65,0.00,,,0.00,WUHU21623XXSP,2013-01-29 18:59:00,
2013-01-29 14:04:00,79.5,67.1,29.60,SSE,157,0.0,0.0,66,0.00,,,0.00,WUHU21623XXSP,2013-01-29 19:04:00,
2013-01-29 14:09:00,79.3,67.0,29.60,ESE,112,0.0,0.0,66,0.00,,,0.00,WUHU21623XXSP,2013-01-29 19:09:00,
2013-01-29 14:14:00,79.3,67.0,29.59,SSE,157,0.0,0.0,66,0.00,,,0.00,WUHU21623XXSP,2013-01-29 19:14:00,
2013-01-29 14:19:00,78.6,66.7,29.59,South,180,0.0,0.0,67,0.00,,,0.00,WUHU21623XXSP,2013-01-29 19:19:00,
2013-01-29 14:24:00,78.6,66.7,29.59,SSE,157,0.0,0.0,67,0.00,,,0.00,WUHU21623XXSP,2013-01-29 19:24:00,
2013-01-29 14:29:00,78.6,67.1,29.59,South,180,0.0,0.0,68,0.00,,,0.00,WUHU21623XXSP,2013-01-29 19:29:00,
2013-01-29 14:34:00,78.8,66.9,29.59,South,180,0.0,0.0,67,0.00,,,0.00,WUHU21623XXSP,2013-01-29 19:34:00,
2013-01-29 14:39:00,79.0,67.0,29.59,South,180,0.0,0.0,67,0.00,,,0.00,WUHU21623XXSP,2013-01-29 19:39:00,
2013-01-29 14:44:00,78.6,66.3,29.59,SE,135,0.0,0.0,66,0.00,,,0.00,WUHU21623XXSP,2013-01-29 19:44:00,
2013-01-29 14:49:00,79.3,67.0,29.59,SSE,157,0.0,0.0,66,0.00,,,0.00,WUHU21623XXSP,2013-01-29 19:49:00,
2013-01-29 14:54:00,79.3,67.0,29.59,SSW,202,0.0,0.0,66,0.00,,,0.00,WUHU21623XXSP,2013-01-29 19:54:00,
2013-01-29 14:58:00,79.3,66.5,29.58,SSE,157,0.0,0.0,65,0.00,,,0.00,WUHU21623XXSP,2013-01-29 19:58:00,
2013-01-29 15:03:00,79.2,66.4,29.58,SSE,157,0.0,0.0,65,0.00,,,0.00,WUHU21623XXSP,2013-01-29 20:03:00,
2013-01-29 15:08:00,78.6,65.8,29.58,SSE,157,0.0,0.0,65,0.00,,,0.00,WUHU21623XXSP,2013-01-29 20:08:00,
2013-01-29 15:13:00,79.0,66.2,29.58,South,180,0.0,0.0,65,0.00,,,0.00,WUHU21623XXSP,2013-01-29 20:13:00,
2013-01-29 15:18:00,79.0,66.2,29.58,SE,135,0.0,0.0,65,0.00,,,0.00,WUHU21623XXSP,2013-01-29 20:18:00,
2013-01-29 15:23:00,79.0,66.2,29.58,SSE,157,0.0,0.0,65,0.00,,,0.00,WUHU21623XXSP,2013-01-29 20:23:00,
2013-01-29 15:28:00,79.0,66.2,29.58,SSE,157,0.0,0.0,65,0.00,,,0.00,WUHU21623XXSP,2013-01-29 20:28:00,
2013-01-29 15:33:00,79.0,66.2,29.58,SE,135,0.0,0.0,65,0.00,,,0.00,WUHU21623XXSP,2013-01-29 20:33:00,
2013-01-29 15:38:00,78.6,66.3,29.58,SSE,157,0.0,0.0,66,0.00,,,0.00,WUHU21623XXSP,2013-01-29 20:38:00,
2013-01-29 15:43:00,79.0,66.6,29.58,SSE,157,0.0,0.0,66,0.00,,,0.00,WUHU21623XXSP,2013-01-29 20:43:00,
2013-01-29 15:48:00,79.3,66.5,29.58,SSE,157,0.0,0.0,65,0.00,,,0.00,WUHU21623XXSP,2013-01-29 20:48:00,
2013-01-29 15:53:00,79.5,66.3,29.58,SSE,157,0.0,0.0,64,0.00,,,0.00,WUHU21623XXSP,2013-01-29 20:53:00,
2013-01-29 15:58:00,79.5,65.8,29.58,South,180,0.0,0.0,64,0.00,,,0.00,WUHU21623XXSP,2013-01-29 20:58:00,
2013-01-29 16:03:00,79.7,66.4,29.58,East,90,0.0,0.0,64,0.00,,,0.00,WUHU21623XXSP,2013-01-29 21:03:00,
2013-01-29 16:08:00,79.5,66.3,29.58,SSE,157,0.0,0.0,64,0.00,,,0.00,WUHU21623XXSP,2013-01-29 21:08:00,
2013-01-29 16:13:00,79.7,66.4,29.58,SE,135,0.0,0.0,64,0.00,,,0.00,WUHU21623XXSP,2013-01-29 21:13:00,
2013-01-29 16:18:00,79.3,66.5,29.58,SSE,157,0.0,0.0,65,0.00,,,0.00,WUHU21623XXSP,2013-01-29 21:18:00,
2013-01-29 16:23:00,79.3,66.5,29.59,South,180,0.0,0.0,65,0.00,,,0.00,WUHU21623XXSP,2013-01-29 21:23:00,
2013-01-29 16:28:00,79.0,66.2,29.59,SSE,157,0.0,0.0,65,0.00,,,0.00,WUHU21623XXSP,2013-01-29 21:28:00,
2013-01-29 16:33:00,78.6,66.3,29.59,SE,135,0.0,0.0,66,0.00,,,0.00,WUHU21623XXSP,2013-01-29 21:33:00,
2013-01-29 16:38:00,78.4,66.1,29.59,SSE,157,0.0,0.0,66,0.00,,,0.00,WUHU21623XXSP,2013-01-29 21:38:00,
2013-01-29 16:43:00,77.7,65.8,29.59,SE,135,0.0,0.0,66,0.00,,,0.00,WUHU21623XXSP,2013-01-29 21:43:00,
2013-01-29 16:48:00,77.5,65.7,29.59,SSE,157,0.0,0.0,67,0.00,,,0.00,WUHU21623XXSP,2013-01-29 21:48:00,
2013-01-29 16:53:00,77.4,65.5,29.59,South,180,0.0,0.0,67,0.00,,,0.00,WUHU21623XXSP,2013-01-29 21:53:00,
2013-01-29 16:58:00,76.8,65.0,29.59,SSE,157,0.0,0.0,67,0.00,,,0.00,WUHU21623XXSP,2013-01-29 21:58:00,
2013-01-29 17:03:00,76.8,65.0,29.59,SE,135,0.0,0.0,67,0.00,,,0.00,WUHU21623XXSP,2013-01-29 22:03:00,
2013-01-29 17:08:00,77.0,65.2,29.59,SSE,157,0.0,0.0,67,0.00,,,0.00,WUHU21623XXSP,2013-01-29 22:08:00,
2013-01-29 17:13:00,76.6,65.3,29.59,SSE,157,0.0,0.0,68,0.00,,,0.00,WUHU21623XXSP,2013-01-29 22:13:00,
2013-01-29 17:18:00,76.3,65.4,29.59,ESE,112,0.0,0.0,69,0.00,,,0.00,WUHU21623XXSP,2013-01-29 22:18:00,
2013-01-29 17:23:00,75.9,65.5,29.60,South,180,0.0,0.0,70,0.00,,,0.00,WUHU21623XXSP,2013-01-29 22:23:00,
2013-01-29 17:28:00,75.7,65.7,29.60,ESE,112,0.0,0.0,71,0.00,,,0.00,WUHU21623XXSP,2013-01-29 22:28:00,
2013-01-29 17:33:00,75.7,65.7,29.60,SSE,157,0.0,0.0,71,0.00,,,0.00,WUHU21623XXSP,2013-01-29 22:33:00,
2013-01-29 17:38:00,75.4,65.7,29.60,SSE,157,0.0,0.0,72,0.00,,,0.00,WUHU21623XXSP,2013-01-29 22:38:00,
2013-01-29 17:43:00,75.0,65.4,29.60,SE,135,0.0,0.0,72,0.00,,,0.00,WUHU21623XXSP,2013-01-29 22:43:00,
2013-01-29 17:48:00,75.0,65.4,29.60,SE,135,0.0,0.0,72,0.00,,,0.00,WUHU21623XXSP,2013-01-29 22:48:00,
2013-01-29 17:53:00,74.8,65.2,29.60,SE,135,0.0,0.0,72,0.00,,,0.00,WUHU21623XXSP,2013-01-29 22:53:00,
2013-01-29 17:58:00,74.5,64.9,29.60,SSE,157,0.0,0.0,72,0.00,,,0.00,WUHU21623XXSP,2013-01-29 22:58:00,
2013-01-29 18:03:00,74.5,64.5,29.60,SE,135,0.0,0.0,71,0.00,,,0.00,WUHU21623XXSP,2013-01-29 23:03:00,
2013-01-29 18:08:00,74.5,64.5,29.60,ESE,112,0.0,0.0,71,0.00,,,0.00,WUHU21623XXSP,2013-01-29 23:08:00,
2013-01-29 18:13:00,74.5,64.5,29.60,SE,135,0.0,0.0,71,0.00,,,0.00,WUHU21623XXSP,2013-01-29 23:13:00,
2013-01-29 18:18:00,74.1,64.2,29.60,South,180,0.0,0.0,71,0.00,,,0.00,WUHU21623XXSP,2013-01-29 23:18:00,
2013-01-29 18:23:00,74.1,64.2,29.60,SSE,157,0.0,0.0,71,0.00,,,0.00,WUHU21623XXSP,2013-01-29 23:23:00,
2013-01-29 18:28:00,74.1,64.2,29.60,SSE,157,0.0,0.0,71,0.00,,,0.00,WUHU21623XXSP,2013-01-29 23:28:00,
2013-01-29 18:33:00,74.1,64.2,29.60,SE,135,0.0,0.0,71,0.00,,,0.00,WUHU21623XXSP,2013-01-29 23:33:00,
2013-01-29 18:38:00,73.9,64.0,29.60,SSE,157,0.0,0.0,71,0.00,,,0.00,WUHU21623XXSP,2013-01-29 23:38:00,
2013-01-29 18:43:00,73.9,64.0,29.60,SSE,157,0.0,0.0,71,0.00,,,0.00,WUHU21623XXSP,2013-01-29 23:43:00,
2013-01-29 18:48:00,73.8,63.8,29.60,SE,135,0.0,0.0,71,0.00,,,0.00,WUHU21623XXSP,2013-01-29 23:48:00,
2013-01-29 18:53:00,73.6,63.7,29.60,SE,135,0.0,0.0,71,0.00,,,0.00,WUHU21623XXSP,2013-01-29 23:53:00,
2013-01-29 18:58:00,73.6,63.7,29.60,SSE,157,0.0,0.0,71,0.00,,,0.00,WUHU21623XXSP,2013-01-29 23:58:00,
2013-01-29 19:03:00,73.6,63.7,29.59,South,180,0.0,0.0,71,0.00,,,0.00,WUHU21623XXSP,2013-01-30 00:03:00,
2013-01-29 19:08:00,73.8,63.8,29.59,SSE,157,0.0,0.0,71,0.00,,,0.00,WUHU21623XXSP,2013-01-30 00:08:00,
2013-01-29 19:13:00,73.6,63.3,29.60,SSE,157,0.0,0.0,70,0.00,,,0.00,WUHU21623XXSP,2013-01-30 00:13:00,
2013-01-29 19:18:00,73.6,63.3,29.60,SSE,157,0.0,0.0,70,0.00,,,0.00,WUHU21623XXSP,2013-01-30 00:18:00,
2013-01-29 19:23:00,73.6,63.3,29.60,SE,135,0.0,0.0,70,0.00,,,0.00,WUHU21623XXSP,2013-01-30 00:23:00,
2013-01-29 19:28:00,73.6,63.3,29.59,SSE,157,0.0,0.0,70,0.00,,,0.00,WUHU21623XXSP,2013-01-30 00:28:00,
2013-01-29 19:33:00,73.6,63.3,29.60,SE,135,0.0,0.0,70,0.00,,,0.00,WUHU21623XXSP,2013-01-30 00:33:00,
2013-01-29 19:38:00,73.4,63.1,29.60,SSE,157,0.0,0.0,70,0.00,,,0.00,WUHU21623XXSP,2013-01-30 00:38:00,
2013-01-29 19:43:00,73.4,63.1,29.60,SE,135,0.0,0.0,70,0.00,,,0.00,WUHU21623XXSP,2013-01-30 00:43:00,
2013-01-29 19:48:00,73.2,63.0,29.60,SE,135,0.0,0.0,70,0.00,,,0.00,WUHU21623XXSP,2013-01-30 00:48:00,
2013-01-29 19:53:00,73.2,63.0,29.60,SSE,157,0.0,0.0,70,0.00,,,0.00,WUHU21623XXSP,2013-01-30 00:53:00,
2013-01-29 19:58:00,73.2,63.3,29.60,South,180,0.0,0.0,71,0.00,,,0.00,WUHU21623XXSP,2013-01-30 00:58:00,
2013-01-29 20:03:00,73.2,63.3,29.60,South,180,0.0,0.0,71,0.00,,,0.00,WUHU21623XXSP,2013-01-30 01:03:00,
2013-01-29 20:08:00,73.2,63.7,29.60,SSE,157,0.0,0.0,72,0.00,,,0.00,WUHU21623XXSP,2013-01-30 01:08:00,
2013-01-29 20:13:00,73.0,63.5,29.60,SSE,157,0.0,0.0,72,0.00,,,0.00,WUHU21623XXSP,2013-01-30 01:13:00,
2013-01-29 20:18:00,73.0,63.9,29.60,SSE,157,0.0,0.0,73,0.00,,,0.00,WUHU21623XXSP,2013-01-30 01:18:00,
2013-01-29 20:23:00,73.0,63.9,29.61,SSE,157,0.0,0.0,73,0.00,,,0.00,WUHU21623XXSP,2013-01-30 01:23:00,
2013-01-29 20:28:00,73.0,64.3,29.60,South,180,0.0,0.0,74,0.00,,,0.00,WUHU21623XXSP,2013-01-30 01:28:00,
2013-01-29 20:33:00,73.0,64.3,29.61,SE,135,0.0,0.0,74,0.00,,,0.00,WUHU21623XXSP,2013-01-30 01:33:00,
2013-01-29 20:38:00,72.9,63.7,29.61,SSE,157,0.0,0.0,73,0.00,,,0.00,WUHU21623XXSP,2013-01-30 01:38:00,
2013-01-29 20:43:00,72.7,63.9,29.60,South,180,0.0,0.0,74,0.00,,,0.00,WUHU21623XXSP,2013-01-30 01:43:00,
2013-01-29 20:48:00,72.7,63.9,29.60,SSE,157,0.0,0.0,74,0.00,,,0.00,WUHU21623XXSP,2013-01-30 01:48:00,
2013-01-29 20:53:00,72.7,63.9,29.60,SE,135,0.0,0.0,74,0.00,,,0.00,WUHU21623XXSP,2013-01-30 01:53:00,
2013-01-29 20:58:00,72.7,63.9,29.60,SE,135,0.0,0.0,74,0.00,,,0.00,WUHU21623XXSP,2013-01-30 01:58:00,
2013-01-29 21:03:00,72.7,63.9,29.60,ESE,112,0.0,0.0,74,0.00,,,0.00,WUHU21623XXSP,2013-01-30 02:03:00,
2013-01-29 21:08:00,72.5,63.8,29.60,SSE,157,0.0,0.0,74,0.00,,,0.00,WUHU21623XXSP,2013-01-30 02:08:00,
2013-01-29 21:13:00,72.5,63.8,29.60,SE,135,0.0,0.0,74,0.00,,,0.00,WUHU21623XXSP,2013-01-30 02:13:00,
2013-01-29 21:18:00,72.5,63.8,29.60,SE,135,0.0,0.0,74,0.00,,,0.00,WUHU21623XXSP,2013-01-30 02:18:00,
2013-01-29 21:23:00,72.3,64.0,29.60,SSE,157,0.0,0.0,75,0.00,,,0.00,WUHU21623XXSP,2013-01-30 02:23:00,
2013-01-29 21:28:00,72.3,64.0,29.60,SSE,157,0.0,0.0,75,0.00,,,0.00,WUHU21623XXSP,2013-01-30 02:28:00,
2013-01-29 21:33:00,72.5,64.1,29.60,SE,135,0.0,0.0,75,0.00,,,0.00,WUHU21623XXSP,2013-01-30 02:33:00,
2013-01-29 21:38:00,72.3,64.0,29.60,ESE,112,0.0,0.0,75,0.00,,,0.00,WUHU21623XXSP,2013-01-30 02:38:00,
2013-01-29 21:43:00,72.3,64.0,29.60,SSE,157,0.0,0.0,75,0.00,,,0.00,WUHU21623XXSP,2013-01-30 02:43:00,
2013-01-29 21:48:00,72.3,64.0,29.60,SSE,157,0.0,0.0,75,0.00,,,0.00,WUHU21623XXSP,2013-01-30 02:48:00,
2013-01-29 21:53:00,72.3,63.6,29.60,SE,135,0.0,0.0,74,0.00,,,0.00,WUHU21623XXSP,2013-01-30 02:53:00,
2013-01-29 21:58:00,72.3,63.6,29.60,SSE,157,0.0,0.0,74,0.00,,,0.00,WUHU21623XXSP,2013-01-30 02:58:00,
2013-01-29 22:03:00,72.3,64.0,29.60,ESE,112,0.0,0.0,75,0.00,,,0.00,WUHU21623XXSP,2013-01-30 03:03:00,
2013-01-29 22:08:00,72.3,64.0,29.60,SSE,157,0.0,0.0,75,0.00,,,0.00,WUHU21623XXSP,2013-01-30 03:08:00,
2013-01-29 22:13:00,72.3,63.6,29.60,SE,135,0.0,0.0,74,0.00,,,0.00,WUHU21623XXSP,2013-01-30 03:13:00,
2013-01-29 22:18:00,72.3,63.6,29.60,SE,135,0.0,0.0,74,0.00,,,0.00,WUHU21623XXSP,2013-01-30 03:18:00,
2013-01-29 22:23:00,72.1,63.4,29.60,SE,135,0.0,0.0,74,0.00,,,0.00,WUHU21623XXSP,2013-01-30 03:23:00,
2013-01-29 22:28:00,72.1,63.4,29.60,SE,135,0.0,0.0,74,0.00,,,0.00,WUHU21623XXSP,2013-01-30 03:28:00,
2013-01-29 22:33:00,72.1,63.4,29.60,ESE,112,0.0,0.0,74,0.00,,,0.00,WUHU21623XXSP,2013-01-30 03:33:00,
2013-01-29 22:38:00,72.1,63.4,29.60,SSE,157,0.0,0.0,74,0.00,,,0.00,WUHU21623XXSP,2013-01-30 03:38:00,
2013-01-29 22:43:00,72.1,63.4,29.60,SSE,157,0.0,0.0,74,0.00,,,0.00,WUHU21623XXSP,2013-01-30 03:43:00,
2013-01-29 22:48:00,72.0,63.2,29.60,South,180,0.0,0.0,74,0.00,,,0.00,WUHU21623XXSP,2013-01-30 03:48:00,
2013-01-29 22:53:00,72.0,62.8,29.59,SSE,157,0.0,0.0,73,0.00,,,0.00,WUHU21623XXSP,2013-01-30 03:53:00,
2013-01-29 22:58:00,72.0,63.2,29.58,SE,135,0.0,0.0,74,0.00,,,0.00,WUHU21623XXSP,2013-01-30 03:58:00,
2013-01-29 23:03:00,72.0,62.8,29.58,SSE,157,0.0,0.0,73,0.00,,,0.00,WUHU21623XXSP,2013-01-30 04:03:00,
2013-01-29 23:08:00,71.8,62.7,29.59,SE,135,0.0,0.0,73,0.00,,,0.00,WUHU21623XXSP,2013-01-30 04:08:00,
2013-01-29 23:13:00,71.8,62.7,29.59,SSE,157,0.0,0.0,73,0.00,,,0.00,WUHU21623XXSP,2013-01-30 04:13:00,
2013-01-29 23:18:00,72.0,62.8,29.58,SSE,157,0.0,0.0,73,0.00,,,0.00,WUHU21623XXSP,2013-01-30 04:18:00,
2013-01-29 23:23:00,71.8,62.7,29.58,SSE,157,0.0,0.0,73,0.00,,,0.00,WUHU21623XXSP,2013-01-30 04:23:00,
2013-01-29 23:28:00,71.8,62.7,29.58,SSE,157,0.0,0.0,73,0.00,,,0.00,WUHU21623XXSP,2013-01-30 04:28:00,
2013-01-29 23:33:00,72.0,62.8,29.58,SE,135,0.0,0.0,73,0.00,,,0.00,WUHU21623XXSP,2013-01-30 04:33:00,
2013-01-29 23:38:00,71.8,62.7,29.58,SSE,157,0.0,0.0,73,0.00,,,0.00,WUHU21623XXSP,2013-01-30 04:38:00,
2013-01-29 23:43:00,71.8,62.3,29.58,ESE,112,0.0,0.0,72,0.00,,,0.00,WUHU21623XXSP,2013-01-30 04:43:00,
2013-01-29 23:48:00,71.8,62.3,29.58,South,180,0.0,0.0,72,0.00,,,0.00,WUHU21623XXSP,2013-01-30 04:48:00,
2013-01-29 23:53:00,71.8,62.3,29.58,SE,135,0.0,0.0,72,0.00,,,0.00,WUHU21623XXSP,2013-01-30 04:53:00,
2013-01-29 23:58:00,71.8,62.3,29.57,SE,135,0.0,0.0,72,0.00,,,0.00,WUHU21623XXSP,2013-01-30 04:58:00,